sensor_id;sensor_type;location;lat;lon;timestamp;temperature;humidity
22442;DHT22;11388;54.456;9.752;2022-07-29T00:01:06;14.20;99.90
22442;DHT22;11388;54.456;9.752;2022-07-29T00:03:32;14.10;99.90
22442;DHT22;11388;54.456;9.752;2022-07-29T00:05:58;14.10;99.90
22442;DHT22;11388;54.456;9.752;2022-07-29T00:08:23;14.10;99.90
22442;DHT22;11388;54.456;9.752;2022-07-29T00:10:49;14.10;99.90
22442;DHT22;11388;54.456;9.752;2022-07-29T00:13:15;14.10;99.90
22442;DHT22;11388;54.456;9.752;2022-07-29T00:15:41;14.00;99.90
22442;DHT22;11388;54.456;9.752;2022-07-29T00:18:07;14.00;99.90
22442;DHT22;11388;54.456;9.752;2022-07-29T00:20:32;14.00;99.90
22442;DHT22;11388;54.456;9.752;2022-07-29T00:22:58;14.00;99.90
22442;DHT22;11388;54.456;9.752;2022-07-29T00:25:24;13.90;99.90
22442;DHT22;11388;54.456;9.752;2022-07-29T00:27:50;13.90;99.90
22442;DHT22;11388;54.456;9.752;2022-07-29T00:30:15;13.90;99.90
22442;DHT22;11388;54.456;9.752;2022-07-29T00:32:41;13.90;99.90
22442;DHT22;11388;54.456;9.752;2022-07-29T00:35:08;13.80;99.90
22442;DHT22;11388;54.456;9.752;2022-07-29T00:37:52;13.80;99.90
22442;DHT22;11388;54.456;9.752;2022-07-29T00:40:18;13.70;99.90
22442;DHT22;11388;54.456;9.752;2022-07-29T00:42:45;13.70;99.90
22442;DHT22;11388;54.456;9.752;2022-07-29T00:45:12;13.60;99.90
22442;DHT22;11388;54.456;9.752;2022-07-29T00:47:38;13.60;99.90
22442;DHT22;11388;54.456;9.752;2022-07-29T00:50:05;13.50;99.90
22442;DHT22;11388;54.456;9.752;2022-07-29T00:52:33;13.50;99.90
22442;DHT22;11388;54.456;9.752;2022-07-29T00:54:58;13.50;99.90
22442;DHT22;11388;54.456;9.752;2022-07-29T00:57:24;13.50;99.90
22442;DHT22;11388;54.456;9.752;2022-07-29T00:59:50;13.50;99.90
22442;DHT22;11388;54.456;9.752;2022-07-29T01:02:16;13.40;99.90
22442;DHT22;11388;54.456;9.752;2022-07-29T01:04:41;13.40;99.90
22442;DHT22;11388;54.456;9.752;2022-07-29T01:07:07;13.40;99.90
22442;DHT22;11388;54.456;9.752;2022-07-29T01:09:34;13.30;99.90
22442;DHT22;11388;54.456;9.752;2022-07-29T01:15:01;13.40;99.90
22442;DHT22;11388;54.456;9.752;2022-07-29T01:23:42;13.40;99.90
22442;DHT22;11388;54.456;9.752;2022-07-29T01:29:22;13.20;99.90
22442;DHT22;11388;54.456;9.752;2022-07-29T01:32:04;13.10;99.90
22442;DHT22;11388;54.456;9.752;2022-07-29T01:34:47;13.00;99.90
22442;DHT22;11388;54.456;9.752;2022-07-29T01:39:54;13.10;99.90
22442;DHT22;11388;54.456;9.752;2022-07-29T01:42:44;13.10;99.90
22442;DHT22;11388;54.456;9.752;2022-07-29T01:51:00;12.90;99.90
22442;DHT22;11388;54.456;9.752;2022-07-29T01:53:34;12.90;99.90
22442;DHT22;11388;54.456;9.752;2022-07-29T01:56:02;12.90;99.90
22442;DHT22;11388;54.456;9.752;2022-07-29T01:58:29;12.80;99.90
22442;DHT22;11388;54.456;9.752;2022-07-29T02:00:58;12.90;99.90
22442;DHT22;11388;54.456;9.752;2022-07-29T02:03:25;12.90;99.90
22442;DHT22;11388;54.456;9.752;2022-07-29T02:05:53;12.80;99.90
22442;DHT22;11388;54.456;9.752;2022-07-29T02:08:22;12.50;99.90
22442;DHT22;11388;54.456;9.752;2022-07-29T02:10:48;12.60;99.90
22442;DHT22;11388;54.456;9.752;2022-07-29T02:13:16;12.70;99.90
22442;DHT22;11388;54.456;9.752;2022-07-29T02:15:44;12.60;99.90
22442;DHT22;11388;54.456;9.752;2022-07-29T02:18:17;12.40;99.90
22442;DHT22;11388;54.456;9.752;2022-07-29T02:20:48;12.50;99.90
22442;DHT22;11388;54.456;9.752;2022-07-29T02:23:19;12.40;99.90
22442;DHT22;11388;54.456;9.752;2022-07-29T02:25:48;12.50;99.90
22442;DHT22;11388;54.456;9.752;2022-07-29T02:28:16;12.50;99.90
22442;DHT22;11388;54.456;9.752;2022-07-29T02:30:43;12.60;99.90
22442;DHT22;11388;54.456;9.752;2022-07-29T02:33:12;12.50;99.90
22442;DHT22;11388;54.456;9.752;2022-07-29T02:35:40;12.50;99.90
22442;DHT22;11388;54.456;9.752;2022-07-29T02:38:08;12.50;99.90
22442;DHT22;11388;54.456;9.752;2022-07-29T02:40:53;12.40;99.90
22442;DHT22;11388;54.456;9.752;2022-07-29T02:43:20;12.40;99.90
22442;DHT22;11388;54.456;9.752;2022-07-29T02:45:48;12.40;99.90
22442;DHT22;11388;54.456;9.752;2022-07-29T02:48:17;12.30;99.90
22442;DHT22;11388;54.456;9.752;2022-07-29T02:50:52;12.30;99.90
22442;DHT22;11388;54.456;9.752;2022-07-29T02:53:23;12.30;99.90
22442;DHT22;11388;54.456;9.752;2022-07-29T02:55:59;12.30;99.90
22442;DHT22;11388;54.456;9.752;2022-07-29T02:58:46;12.30;99.90
22442;DHT22;11388;54.456;9.752;2022-07-29T03:01:16;12.30;99.90
22442;DHT22;11388;54.456;9.752;2022-07-29T03:03:46;12.20;99.90
22442;DHT22;11388;54.456;9.752;2022-07-29T03:06:14;12.20;99.90
22442;DHT22;11388;54.456;9.752;2022-07-29T03:08:41;12.20;99.90
22442;DHT22;11388;54.456;9.752;2022-07-29T03:11:07;12.20;99.90
22442;DHT22;11388;54.456;9.752;2022-07-29T03:13:35;12.20;99.90
22442;DHT22;11388;54.456;9.752;2022-07-29T03:16:01;12.20;99.90
22442;DHT22;11388;54.456;9.752;2022-07-29T03:18:28;12.10;99.90
22442;DHT22;11388;54.456;9.752;2022-07-29T03:20:54;12.20;99.90
22442;DHT22;11388;54.456;9.752;2022-07-29T03:23:21;12.20;99.90
22442;DHT22;11388;54.456;9.752;2022-07-29T03:25:49;12.20;99.90
22442;DHT22;11388;54.456;9.752;2022-07-29T03:28:15;12.10;99.90
22442;DHT22;11388;54.456;9.752;2022-07-29T03:30:40;12.20;99.90
22442;DHT22;11388;54.456;9.752;2022-07-29T03:33:06;12.20;99.90
22442;DHT22;11388;54.456;9.752;2022-07-29T03:35:32;12.30;99.90
22442;DHT22;11388;54.456;9.752;2022-07-29T03:37:58;12.30;99.90
22442;DHT22;11388;54.456;9.752;2022-07-29T03:40:46;12.20;99.90
22442;DHT22;11388;54.456;9.752;2022-07-29T03:43:15;12.40;99.90
22442;DHT22;11388;54.456;9.752;2022-07-29T03:45:45;12.40;99.90
22442;DHT22;11388;54.456;9.752;2022-07-29T03:48:14;12.40;99.90
22442;DHT22;11388;54.456;9.752;2022-07-29T03:50:40;12.40;99.90
22442;DHT22;11388;54.456;9.752;2022-07-29T03:53:06;12.50;99.90
22442;DHT22;11388;54.456;9.752;2022-07-29T03:55:40;12.50;99.90
22442;DHT22;11388;54.456;9.752;2022-07-29T03:58:07;12.50;99.90
22442;DHT22;11388;54.456;9.752;2022-07-29T04:00:34;12.60;99.90
22442;DHT22;11388;54.456;9.752;2022-07-29T04:03:02;12.60;99.90
22442;DHT22;11388;54.456;9.752;2022-07-29T04:05:29;12.70;99.90
22442;DHT22;11388;54.456;9.752;2022-07-29T04:07:54;12.70;99.90
22442;DHT22;11388;54.456;9.752;2022-07-29T04:10:20;12.70;99.90
22442;DHT22;11388;54.456;9.752;2022-07-29T04:12:46;12.70;99.90
22442;DHT22;11388;54.456;9.752;2022-07-29T04:15:12;12.70;99.90
22442;DHT22;11388;54.456;9.752;2022-07-29T04:17:37;12.80;99.90
22442;DHT22;11388;54.456;9.752;2022-07-29T04:20:04;12.80;99.90
22442;DHT22;11388;54.456;9.752;2022-07-29T04:22:30;12.80;99.90
22442;DHT22;11388;54.456;9.752;2022-07-29T04:24:56;12.80;99.90
22442;DHT22;11388;54.456;9.752;2022-07-29T04:27:22;12.90;99.90
22442;DHT22;11388;54.456;9.752;2022-07-29T04:29:47;13.10;99.90
22442;DHT22;11388;54.456;9.752;2022-07-29T04:32:13;13.20;99.90
22442;DHT22;11388;54.456;9.752;2022-07-29T04:34:39;13.20;99.90
22442;DHT22;11388;54.456;9.752;2022-07-29T04:37:04;13.30;99.90
22442;DHT22;11388;54.456;9.752;2022-07-29T04:39:30;13.40;99.90
22442;DHT22;11388;54.456;9.752;2022-07-29T04:41:56;13.40;99.90
22442;DHT22;11388;54.456;9.752;2022-07-29T04:44:21;13.50;99.90
22442;DHT22;11388;54.456;9.752;2022-07-29T04:46:47;13.70;99.90
22442;DHT22;11388;54.456;9.752;2022-07-29T04:49:13;13.80;99.90
22442;DHT22;11388;54.456;9.752;2022-07-29T04:51:39;13.70;99.90
22442;DHT22;11388;54.456;9.752;2022-07-29T04:54:04;13.70;99.90
22442;DHT22;11388;54.456;9.752;2022-07-29T04:56:30;13.70;99.90
22442;DHT22;11388;54.456;9.752;2022-07-29T04:58:56;13.80;99.90
22442;DHT22;11388;54.456;9.752;2022-07-29T05:01:22;13.80;99.90
22442;DHT22;11388;54.456;9.752;2022-07-29T05:03:48;13.80;99.90
22442;DHT22;11388;54.456;9.752;2022-07-29T05:06:14;13.80;99.90
22442;DHT22;11388;54.456;9.752;2022-07-29T05:08:39;13.80;99.90
22442;DHT22;11388;54.456;9.752;2022-07-29T05:11:05;13.90;99.90
22442;DHT22;11388;54.456;9.752;2022-07-29T05:13:31;14.10;99.90
22442;DHT22;11388;54.456;9.752;2022-07-29T05:15:57;14.10;99.90
22442;DHT22;11388;54.456;9.752;2022-07-29T05:18:25;14.10;99.90
22442;DHT22;11388;54.456;9.752;2022-07-29T05:20:51;14.20;99.90
22442;DHT22;11388;54.456;9.752;2022-07-29T05:23:17;14.30;99.90
22442;DHT22;11388;54.456;9.752;2022-07-29T05:25:43;14.20;99.90
22442;DHT22;11388;54.456;9.752;2022-07-29T05:28:09;14.40;99.90
22442;DHT22;11388;54.456;9.752;2022-07-29T05:30:35;14.50;99.90
22442;DHT22;11388;54.456;9.752;2022-07-29T05:33:00;14.40;99.90
22442;DHT22;11388;54.456;9.752;2022-07-29T05:35:26;14.60;99.90
22442;DHT22;11388;54.456;9.752;2022-07-29T05:37:52;14.60;99.90
22442;DHT22;11388;54.456;9.752;2022-07-29T05:40:17;14.70;99.90
22442;DHT22;11388;54.456;9.752;2022-07-29T05:42:43;14.80;99.90
22442;DHT22;11388;54.456;9.752;2022-07-29T05:45:09;14.90;99.90
22442;DHT22;11388;54.456;9.752;2022-07-29T05:47:35;15.00;99.90
22442;DHT22;11388;54.456;9.752;2022-07-29T05:50:01;15.00;99.90
22442;DHT22;11388;54.456;9.752;2022-07-29T05:52:35;15.20;99.90
22442;DHT22;11388;54.456;9.752;2022-07-29T05:55:00;15.30;99.90
22442;DHT22;11388;54.456;9.752;2022-07-29T05:57:29;15.40;99.90
22442;DHT22;11388;54.456;9.752;2022-07-29T05:59:55;15.40;99.90
22442;DHT22;11388;54.456;9.752;2022-07-29T06:02:28;15.60;99.90
22442;DHT22;11388;54.456;9.752;2022-07-29T06:08:16;15.90;99.90
22442;DHT22;11388;54.456;9.752;2022-07-29T06:10:42;16.00;99.90
22442;DHT22;11388;54.456;9.752;2022-07-29T06:13:08;16.10;99.90
22442;DHT22;11388;54.456;9.752;2022-07-29T06:15:34;16.20;99.90
22442;DHT22;11388;54.456;9.752;2022-07-29T06:18:00;16.30;99.90
22442;DHT22;11388;54.456;9.752;2022-07-29T06:20:26;16.40;99.90
22442;DHT22;11388;54.456;9.752;2022-07-29T06:22:54;16.50;99.90
22442;DHT22;11388;54.456;9.752;2022-07-29T06:25:20;16.60;99.90
22442;DHT22;11388;54.456;9.752;2022-07-29T06:27:46;16.60;99.90
22442;DHT22;11388;54.456;9.752;2022-07-29T06:30:12;16.60;99.90
22442;DHT22;11388;54.456;9.752;2022-07-29T06:32:38;16.60;99.90
22442;DHT22;11388;54.456;9.752;2022-07-29T06:35:04;16.60;99.90
22442;DHT22;11388;54.456;9.752;2022-07-29T06:37:30;16.70;99.90
22442;DHT22;11388;54.456;9.752;2022-07-29T06:39:55;16.70;99.90
22442;DHT22;11388;54.456;9.752;2022-07-29T06:42:43;16.70;99.90
22442;DHT22;11388;54.456;9.752;2022-07-29T06:45:10;16.70;99.90
22442;DHT22;11388;54.456;9.752;2022-07-29T06:47:36;16.80;99.90
22442;DHT22;11388;54.456;9.752;2022-07-29T06:50:03;16.80;99.90
22442;DHT22;11388;54.456;9.752;2022-07-29T06:52:29;17.00;99.90
22442;DHT22;11388;54.456;9.752;2022-07-29T06:54:54;17.20;99.90
22442;DHT22;11388;54.456;9.752;2022-07-29T06:57:21;17.20;99.90
22442;DHT22;11388;54.456;9.752;2022-07-29T06:59:46;17.30;99.90
22442;DHT22;11388;54.456;9.752;2022-07-29T07:02:14;17.30;99.90
22442;DHT22;11388;54.456;9.752;2022-07-29T07:04:40;17.40;99.90
22442;DHT22;11388;54.456;9.752;2022-07-29T07:07:06;17.50;99.90
22442;DHT22;11388;54.456;9.752;2022-07-29T07:09:31;17.40;99.90
22442;DHT22;11388;54.456;9.752;2022-07-29T07:11:57;17.40;99.90
22442;DHT22;11388;54.456;9.752;2022-07-29T07:14:23;17.50;99.90
22442;DHT22;11388;54.456;9.752;2022-07-29T07:16:49;17.60;99.90
22442;DHT22;11388;54.456;9.752;2022-07-29T07:19:14;17.60;99.90
22442;DHT22;11388;54.456;9.752;2022-07-29T07:21:40;17.70;99.90
22442;DHT22;11388;54.456;9.752;2022-07-29T07:24:06;17.80;99.90
22442;DHT22;11388;54.456;9.752;2022-07-29T07:26:32;17.90;99.90
22442;DHT22;11388;54.456;9.752;2022-07-29T07:28:57;17.90;99.90
22442;DHT22;11388;54.456;9.752;2022-07-29T07:31:24;17.90;99.90
22442;DHT22;11388;54.456;9.752;2022-07-29T07:33:49;18.00;99.90
22442;DHT22;11388;54.456;9.752;2022-07-29T07:36:29;18.10;99.90
22442;DHT22;11388;54.456;9.752;2022-07-29T07:38:55;18.20;99.90
22442;DHT22;11388;54.456;9.752;2022-07-29T07:41:22;18.20;99.90
22442;DHT22;11388;54.456;9.752;2022-07-29T07:43:48;18.30;99.90
22442;DHT22;11388;54.456;9.752;2022-07-29T07:46:14;18.40;99.90
22442;DHT22;11388;54.456;9.752;2022-07-29T07:48:40;18.60;99.90
22442;DHT22;11388;54.456;9.752;2022-07-29T07:51:06;18.60;99.90
22442;DHT22;11388;54.456;9.752;2022-07-29T07:53:33;18.70;99.90
22442;DHT22;11388;54.456;9.752;2022-07-29T07:55:59;18.70;99.90
22442;DHT22;11388;54.456;9.752;2022-07-29T07:58:25;18.70;99.90
22442;DHT22;11388;54.456;9.752;2022-07-29T08:00:53;18.80;99.90
22442;DHT22;11388;54.456;9.752;2022-07-29T08:03:35;19.00;99.90
22442;DHT22;11388;54.456;9.752;2022-07-29T08:06:01;18.90;99.90
22442;DHT22;11388;54.456;9.752;2022-07-29T08:08:27;19.00;99.90
22442;DHT22;11388;54.456;9.752;2022-07-29T08:10:52;19.10;99.90
22442;DHT22;11388;54.456;9.752;2022-07-29T08:13:19;19.30;99.90
22442;DHT22;11388;54.456;9.752;2022-07-29T08:15:46;19.30;99.90
22442;DHT22;11388;54.456;9.752;2022-07-29T08:18:12;19.50;99.90
22442;DHT22;11388;54.456;9.752;2022-07-29T08:20:38;19.50;99.90
22442;DHT22;11388;54.456;9.752;2022-07-29T08:23:06;19.60;99.90
22442;DHT22;11388;54.456;9.752;2022-07-29T08:25:35;19.60;99.90
22442;DHT22;11388;54.456;9.752;2022-07-29T08:28:01;19.60;99.90
22442;DHT22;11388;54.456;9.752;2022-07-29T08:30:27;19.40;99.90
22442;DHT22;11388;54.456;9.752;2022-07-29T08:32:53;19.50;99.90
22442;DHT22;11388;54.456;9.752;2022-07-29T08:35:24;19.50;99.90
22442;DHT22;11388;54.456;9.752;2022-07-29T08:37:50;19.60;99.90
22442;DHT22;11388;54.456;9.752;2022-07-29T08:40:16;19.70;99.90
22442;DHT22;11388;54.456;9.752;2022-07-29T08:42:42;19.80;99.90
22442;DHT22;11388;54.456;9.752;2022-07-29T08:45:11;19.80;99.90
22442;DHT22;11388;54.456;9.752;2022-07-29T08:47:40;19.90;99.90
22442;DHT22;11388;54.456;9.752;2022-07-29T08:50:17;19.90;99.90
22442;DHT22;11388;54.456;9.752;2022-07-29T08:53:20;20.00;99.90
22442;DHT22;11388;54.456;9.752;2022-07-29T08:55:57;20.20;99.90
22442;DHT22;11388;54.456;9.752;2022-07-29T08:58:31;20.10;99.90
22442;DHT22;11388;54.456;9.752;2022-07-29T09:01:01;20.10;99.90
22442;DHT22;11388;54.456;9.752;2022-07-29T09:03:31;20.10;99.90
22442;DHT22;11388;54.456;9.752;2022-07-29T09:06:02;20.30;99.90
22442;DHT22;11388;54.456;9.752;2022-07-29T09:08:28;20.40;99.90
22442;DHT22;11388;54.456;9.752;2022-07-29T09:10:54;20.40;99.90
22442;DHT22;11388;54.456;9.752;2022-07-29T09:13:22;20.40;99.90
22442;DHT22;11388;54.456;9.752;2022-07-29T09:15:48;20.50;99.90
22442;DHT22;11388;54.456;9.752;2022-07-29T09:20:58;20.70;99.90
22442;DHT22;11388;54.456;9.752;2022-07-29T09:24:06;20.90;99.90
22442;DHT22;11388;54.456;9.752;2022-07-29T09:26:35;20.90;99.90
22442;DHT22;11388;54.456;9.752;2022-07-29T09:29:12;21.00;99.90
22442;DHT22;11388;54.456;9.752;2022-07-29T09:31:40;20.90;99.90
22442;DHT22;11388;54.456;9.752;2022-07-29T09:34:07;20.90;99.90
22442;DHT22;11388;54.456;9.752;2022-07-29T09:36:46;20.90;99.90
22442;DHT22;11388;54.456;9.752;2022-07-29T09:39:14;20.80;99.90
22442;DHT22;11388;54.456;9.752;2022-07-29T09:41:51;20.80;99.90
22442;DHT22;11388;54.456;9.752;2022-07-29T09:47:09;20.90;99.90
22442;DHT22;11388;54.456;9.752;2022-07-29T09:49:36;20.90;99.90
22442;DHT22;11388;54.456;9.752;2022-07-29T09:52:15;21.00;99.90
22442;DHT22;11388;54.456;9.752;2022-07-29T09:54:41;21.00;99.90
22442;DHT22;11388;54.456;9.752;2022-07-29T09:57:08;21.10;99.90
22442;DHT22;11388;54.456;9.752;2022-07-29T09:59:38;21.20;99.90
22442;DHT22;11388;54.456;9.752;2022-07-29T10:02:14;21.20;99.90
22442;DHT22;11388;54.456;9.752;2022-07-29T10:04:41;21.30;99.90
22442;DHT22;11388;54.456;9.752;2022-07-29T10:07:08;21.10;99.90
22442;DHT22;11388;54.456;9.752;2022-07-29T10:09:34;21.00;99.90
22442;DHT22;11388;54.456;9.752;2022-07-29T10:12:12;21.10;99.90
22442;DHT22;11388;54.456;9.752;2022-07-29T10:14:42;21.10;99.90
22442;DHT22;11388;54.456;9.752;2022-07-29T10:17:08;21.00;99.90
22442;DHT22;11388;54.456;9.752;2022-07-29T10:19:36;21.00;99.90
22442;DHT22;11388;54.456;9.752;2022-07-29T10:22:06;21.10;99.90
22442;DHT22;11388;54.456;9.752;2022-07-29T10:24:33;21.00;99.90
22442;DHT22;11388;54.456;9.752;2022-07-29T10:27:01;21.10;99.90
22442;DHT22;11388;54.456;9.752;2022-07-29T10:44:09;21.50;99.90
22442;DHT22;11388;54.456;9.752;2022-07-29T10:47:02;21.30;99.90
22442;DHT22;11388;54.456;9.752;2022-07-29T10:49:28;21.40;99.90
22442;DHT22;11388;54.456;9.752;2022-07-29T10:52:06;21.50;99.90
22442;DHT22;11388;54.456;9.752;2022-07-29T10:55:03;21.70;99.90
22442;DHT22;11388;54.456;9.752;2022-07-29T10:57:30;22.00;99.90
22442;DHT22;11388;54.456;9.752;2022-07-29T11:07:39;22.20;99.90
22442;DHT22;11388;54.456;9.752;2022-07-29T11:16:08;22.20;99.90
22442;DHT22;11388;54.456;9.752;2022-07-29T11:18:15;22.30;99.90
22442;DHT22;11388;54.456;9.752;2022-07-29T11:20:49;22.50;99.90
22442;DHT22;11388;54.456;9.752;2022-07-29T11:23:30;22.30;99.90
22442;DHT22;11388;54.456;9.752;2022-07-29T11:29:03;22.70;99.90
22442;DHT22;11388;54.456;9.752;2022-07-29T11:31:40;22.90;99.90
22442;DHT22;11388;54.456;9.752;2022-07-29T11:40:16;22.70;99.90
22442;DHT22;11388;54.456;9.752;2022-07-29T11:42:43;23.10;99.90
22442;DHT22;11388;54.456;9.752;2022-07-29T11:45:16;23.20;99.90
22442;DHT22;11388;54.456;9.752;2022-07-29T11:50:13;23.60;99.90
22442;DHT22;11388;54.456;9.752;2022-07-29T11:52:45;23.70;99.90
22442;DHT22;11388;54.456;9.752;2022-07-29T11:55:18;23.60;99.90
22442;DHT22;11388;54.456;9.752;2022-07-29T11:57:52;24.00;99.90
22442;DHT22;11388;54.456;9.752;2022-07-29T12:00:32;24.10;99.90
22442;DHT22;11388;54.456;9.752;2022-07-29T12:02:59;24.20;99.90
22442;DHT22;11388;54.456;9.752;2022-07-29T12:05:40;24.30;99.90
22442;DHT22;11388;54.456;9.752;2022-07-29T12:08:08;24.10;99.90
22442;DHT22;11388;54.456;9.752;2022-07-29T12:10:34;24.30;99.90
22442;DHT22;11388;54.456;9.752;2022-07-29T12:13:00;23.90;99.90
22442;DHT22;11388;54.456;9.752;2022-07-29T12:15:26;24.10;99.90
22442;DHT22;11388;54.456;9.752;2022-07-29T12:21:06;24.30;99.90
22442;DHT22;11388;54.456;9.752;2022-07-29T12:23:33;24.50;99.90
22442;DHT22;11388;54.456;9.752;2022-07-29T12:25:59;24.50;99.90
22442;DHT22;11388;54.456;9.752;2022-07-29T12:28:25;24.70;99.90
22442;DHT22;11388;54.456;9.752;2022-07-29T12:30:51;24.70;99.90
22442;DHT22;11388;54.456;9.752;2022-07-29T12:35:46;24.50;99.90
22442;DHT22;11388;54.456;9.752;2022-07-29T12:38:13;24.40;99.90
22442;DHT22;11388;54.456;9.752;2022-07-29T12:40:39;24.80;99.90
22442;DHT22;11388;54.456;9.752;2022-07-29T12:43:16;24.80;99.90
22442;DHT22;11388;54.456;9.752;2022-07-29T12:45:45;25.00;99.90
22442;DHT22;11388;54.456;9.752;2022-07-29T12:48:11;25.10;99.90
22442;DHT22;11388;54.456;9.752;2022-07-29T12:50:59;25.90;99.90
22442;DHT22;11388;54.456;9.752;2022-07-29T12:53:26;26.50;99.90
22442;DHT22;11388;54.456;9.752;2022-07-29T12:55:53;27.10;99.90
22442;DHT22;11388;54.456;9.752;2022-07-29T12:58:35;27.00;99.90
22442;DHT22;11388;54.456;9.752;2022-07-29T13:04:31;26.90;99.90
22442;DHT22;11388;54.456;9.752;2022-07-29T13:10:23;29.10;99.90
22442;DHT22;11388;54.456;9.752;2022-07-29T13:13:04;28.60;99.90
22442;DHT22;11388;54.456;9.752;2022-07-29T13:15:31;28.70;99.90
22442;DHT22;11388;54.456;9.752;2022-07-29T13:17:56;28.10;99.50
22442;DHT22;11388;54.456;9.752;2022-07-29T13:20:27;27.50;99.90
22442;DHT22;11388;54.456;9.752;2022-07-29T13:22:58;26.60;99.90
22442;DHT22;11388;54.456;9.752;2022-07-29T13:25:31;26.00;99.90
22442;DHT22;11388;54.456;9.752;2022-07-29T13:28:03;26.40;99.90
22442;DHT22;11388;54.456;9.752;2022-07-29T13:30:29;27.40;99.60
22442;DHT22;11388;54.456;9.752;2022-07-29T13:32:55;29.00;98.60
22442;DHT22;11388;54.456;9.752;2022-07-29T13:35:20;30.50;97.30
22442;DHT22;11388;54.456;9.752;2022-07-29T13:37:46;32.00;94.20
22442;DHT22;11388;54.456;9.752;2022-07-29T13:40:12;33.40;93.20
22442;DHT22;11388;54.456;9.752;2022-07-29T13:42:39;34.70;90.00
22442;DHT22;11388;54.456;9.752;2022-07-29T13:45:05;34.90;87.80
22442;DHT22;11388;54.456;9.752;2022-07-29T13:47:32;34.30;84.80
22442;DHT22;11388;54.456;9.752;2022-07-29T13:49:57;31.70;86.70
22442;DHT22;11388;54.456;9.752;2022-07-29T13:55:26;29.30;90.40
22442;DHT22;11388;54.456;9.752;2022-07-29T13:57:52;29.60;91.00
22442;DHT22;11388;54.456;9.752;2022-07-29T14:00:17;30.00;90.30
22442;DHT22;11388;54.456;9.752;2022-07-29T14:02:44;29.40;90.00
22442;DHT22;11388;54.456;9.752;2022-07-29T14:05:10;29.80;88.40
22442;DHT22;11388;54.456;9.752;2022-07-29T14:07:37;29.40;89.50
22442;DHT22;11388;54.456;9.752;2022-07-29T14:10:04;28.80;89.30
22442;DHT22;11388;54.456;9.752;2022-07-29T14:12:30;29.40;88.80
22442;DHT22;11388;54.456;9.752;2022-07-29T14:15:01;30.10;87.50
22442;DHT22;11388;54.456;9.752;2022-07-29T14:17:27;30.70;84.70
22442;DHT22;11388;54.456;9.752;2022-07-29T14:19:53;30.80;83.80
22442;DHT22;11388;54.456;9.752;2022-07-29T14:22:18;31.70;84.10
22442;DHT22;11388;54.456;9.752;2022-07-29T14:24:45;31.40;81.20
22442;DHT22;11388;54.456;9.752;2022-07-29T15:41:40;25.70;93.70
22442;DHT22;11388;54.456;9.752;2022-07-29T15:44:23;25.80;94.40
22442;DHT22;11388;54.456;9.752;2022-07-29T15:46:52;26.00;94.50
22442;DHT22;11388;54.456;9.752;2022-07-29T15:49:55;25.70;94.90
22442;DHT22;11388;54.456;9.752;2022-07-29T15:52:37;25.30;95.80
22442;DHT22;11388;54.456;9.752;2022-07-29T15:55:09;24.90;97.30
22442;DHT22;11388;54.456;9.752;2022-07-29T15:57:43;24.80;97.30
22442;DHT22;11388;54.456;9.752;2022-07-29T16:00:26;24.70;97.70
22442;DHT22;11388;54.456;9.752;2022-07-29T16:03:38;25.30;97.70
22442;DHT22;11388;54.456;9.752;2022-07-29T16:06:19;25.40;98.10
22442;DHT22;11388;54.456;9.752;2022-07-29T16:15:33;24.60;98.50
22442;DHT22;11388;54.456;9.752;2022-07-29T16:18:34;24.80;98.80
22442;DHT22;11388;54.456;9.752;2022-07-29T16:24:30;24.90;98.90
22442;DHT22;11388;54.456;9.752;2022-07-29T16:26:57;24.60;99.10
22442;DHT22;11388;54.456;9.752;2022-07-29T16:29:28;24.70;99.60
22442;DHT22;11388;54.456;9.752;2022-07-29T16:31:56;24.50;99.70
22442;DHT22;11388;54.456;9.752;2022-07-29T16:34:25;24.40;99.90
22442;DHT22;11388;54.456;9.752;2022-07-29T16:36:56;24.60;99.90
22442;DHT22;11388;54.456;9.752;2022-07-29T16:39:29;24.10;99.90
22442;DHT22;11388;54.456;9.752;2022-07-29T16:41:58;24.50;99.90
22442;DHT22;11388;54.456;9.752;2022-07-29T16:44:24;24.70;99.90
22442;DHT22;11388;54.456;9.752;2022-07-29T16:46:49;24.50;99.90
22442;DHT22;11388;54.456;9.752;2022-07-29T16:49:18;24.90;99.90
22442;DHT22;11388;54.456;9.752;2022-07-29T16:51:53;25.00;99.90
22442;DHT22;11388;54.456;9.752;2022-07-29T16:54:19;25.60;99.90
22442;DHT22;11388;54.456;9.752;2022-07-29T16:56:45;26.80;99.70
22442;DHT22;11388;54.456;9.752;2022-07-29T16:59:14;27.00;98.90
22442;DHT22;11388;54.456;9.752;2022-07-29T17:01:39;26.90;99.30
22442;DHT22;11388;54.456;9.752;2022-07-29T17:04:05;26.40;97.70
22442;DHT22;11388;54.456;9.752;2022-07-29T17:10:53;25.70;99.50
22442;DHT22;11388;54.456;9.752;2022-07-29T18:47:15;22.30;99.90
22442;DHT22;11388;54.456;9.752;2022-07-29T18:50:14;22.20;99.90
22442;DHT22;11388;54.456;9.752;2022-07-29T19:03:26;21.90;99.90
22442;DHT22;11388;54.456;9.752;2022-07-29T19:25:39;21.30;99.90
22442;DHT22;11388;54.456;9.752;2022-07-29T19:28:28;21.20;99.90
22442;DHT22;11388;54.456;9.752;2022-07-29T19:51:11;20.70;99.90
22442;DHT22;11388;54.456;9.752;2022-07-29T19:53:36;20.70;99.90
22442;DHT22;11388;54.456;9.752;2022-07-29T19:56:03;20.70;99.90
22442;DHT22;11388;54.456;9.752;2022-07-29T19:58:29;20.50;99.90
22442;DHT22;11388;54.456;9.752;2022-07-29T20:00:57;20.50;99.90
22442;DHT22;11388;54.456;9.752;2022-07-29T20:03:26;20.50;99.90
22442;DHT22;11388;54.456;9.752;2022-07-29T20:05:52;20.50;99.90
22442;DHT22;11388;54.456;9.752;2022-07-29T20:08:18;20.50;99.90
22442;DHT22;11388;54.456;9.752;2022-07-29T20:10:46;20.30;99.90
22442;DHT22;11388;54.456;9.752;2022-07-29T20:13:14;20.30;99.90
22442;DHT22;11388;54.456;9.752;2022-07-29T20:15:40;20.30;99.90
22442;DHT22;11388;54.456;9.752;2022-07-29T20:18:06;20.30;99.90
22442;DHT22;11388;54.456;9.752;2022-07-29T20:20:34;20.30;99.90
22442;DHT22;11388;54.456;9.752;2022-07-29T20:23:02;20.30;99.90
22442;DHT22;11388;54.456;9.752;2022-07-29T20:25:28;20.40;99.90
22442;DHT22;11388;54.456;9.752;2022-07-29T20:27:57;20.30;99.90
22442;DHT22;11388;54.456;9.752;2022-07-29T20:30:26;20.30;99.90
22442;DHT22;11388;54.456;9.752;2022-07-29T20:32:57;20.30;99.90
22442;DHT22;11388;54.456;9.752;2022-07-29T20:35:37;20.20;99.90
22442;DHT22;11388;54.456;9.752;2022-07-29T20:38:08;20.20;99.90
22442;DHT22;11388;54.456;9.752;2022-07-29T20:43:43;20.30;99.90
22442;DHT22;11388;54.456;9.752;2022-07-29T20:46:14;20.30;99.90
22442;DHT22;11388;54.456;9.752;2022-07-29T20:48:44;20.20;99.90
22442;DHT22;11388;54.456;9.752;2022-07-29T20:51:10;20.20;99.90
22442;DHT22;11388;54.456;9.752;2022-07-29T20:53:39;20.20;99.90
22442;DHT22;11388;54.456;9.752;2022-07-29T20:56:21;20.10;99.90
22442;DHT22;11388;54.456;9.752;2022-07-29T21:26:04;20.00;99.90
22442;DHT22;11388;54.456;9.752;2022-07-29T21:29:14;20.00;99.90
22442;DHT22;11388;54.456;9.752;2022-07-29T21:31:41;20.10;99.90